Time;durP1;ratioP1;P1;durP2;ratioP2;P2;SDS_P1;SDS_P2;PMS_P1;PMS_P2;Temp;Humidity;BMP_temperature;BMP_pressure;BME280_temperature;BME280_humidity;BME280_pressure;Samples;Min_cycle;Max_cycle;Signal;HPM_P1;HPM_P2
2022/08/09 00:01:47;;;;;;;3.27;2.97;;;;;;;;;;5037219;28;20225;-78
2022/08/09 00:04:50;;;;;;;8.70;3.40;;;;;;;;;;5036567;28;20197;-78
2022/08/09 00:07:55;;;;;;;3.97;3.33;;;;;;;;;;5030793;28;20220;-78
2022/08/09 00:11:00;;;;;;;3.23;2.90;;;;;;;;;;5037285;28;20212;-78
2022/08/09 00:14:04;;;;;;;3.90;3.60;;;;;;;;;;5016722;28;20521;-78
2022/08/09 00:17:09;;;;;;;3.47;3.17;;;;;;;;;;5005648;28;20174;-78
2022/08/09 00:20:13;;;;;;;4.07;3.47;;;;;;;;;;5005332;28;20182;-78
2022/08/09 00:23:17;;;;;;;3.77;3.33;;;;;;;;;;5017145;28;20526;-78
2022/08/09 00:26:21;;;;;;;4.03;3.23;;;;;;;;;;4993718;28;20181;-78
2022/08/09 00:29:26;;;;;;;3.60;3.30;;;;;;;;;;5027340;28;20205;-78
2022/08/09 00:32:30;;;;;;;3.30;3.00;;;;;;;;;;5016215;28;20213;-78
2022/08/09 00:35:34;;;;;;;3.33;3.03;;;;;;;;;;5016219;28;20173;-78
2022/08/09 00:38:38;;;;;;;3.53;3.20;;;;;;;;;;5023973;28;20201;-79
2022/08/09 00:41:43;;;;;;;4.63;2.97;;;;;;;;;;5005741;28;20243;-78
2022/08/09 00:44:47;;;;;;;4.20;3.00;;;;;;;;;;5027836;28;20185;-78
2022/08/09 00:47:51;;;;;;;4.23;3.10;;;;;;;;;;5016532;28;20201;-78
2022/08/09 00:50:56;;;;;;;3.53;3.00;;;;;;;;;;5016268;28;20217;-78
2022/08/09 00:54:00;;;;;;;6.10;2.60;;;;;;;;;;5015768;28;20213;-78
2022/08/09 00:57:04;;;;;;;3.90;3.00;;;;;;;;;;5027366;28;20182;-78
2022/08/09 01:00:09;;;;;;;3.67;2.90;;;;;;;;;;5009455;28;20541;-78
2022/08/09 01:03:34;;;;;;;6.17;3.23;;;;;;;;;;5035856;28;20181;-78
2022/08/09 01:06:43;;;;;;;3.37;3.07;;;;;;;;;;5035784;28;20181;-78
2022/08/09 01:10:00;;;;;;;4.10;3.10;;;;;;;;;;5035331;28;20193;-79
2022/08/09 01:13:18;;;;;;;3.43;3.00;;;;;;;;;;5035746;28;20185;-78
2022/08/09 01:16:25;;;;;;;4.17;3.00;;;;;;;;;;5035143;28;20200;-78
2022/08/09 01:19:48;;;;;;;5.93;3.23;;;;;;;;;;5035225;28;20193;-78
2022/08/09 01:23:20;;;;;;;3.53;3.10;;;;;;;;;;5035205;28;20177;-78
2022/08/09 01:26:43;;;;;;;3.73;3.37;;;;;;;;;;5023705;28;20181;-78
2022/08/09 01:29:53;;;;;;;4.73;3.00;;;;;;;;;;5035884;28;20177;-78
2022/08/09 01:33:00;;;;;;;3.30;3.00;;;;;;;;;;5034616;28;20184;-78
2022/08/09 01:36:11;;;;;;;3.27;3.00;;;;;;;;;;5023212;28;20177;-78
2022/08/09 01:39:18;;;;;;;4.00;3.20;;;;;;;;;;5023402;28;20181;-78
2022/08/09 01:42:22;;;;;;;3.90;3.37;;;;;;;;;;5033572;28;20228;-78
2022/08/09 01:45:27;;;;;;;3.40;3.10;;;;;;;;;;5011747;28;20180;-78
2022/08/09 01:48:33;;;;;;;3.60;3.30;;;;;;;;;;5011691;28;20671;-78
2022/08/09 01:51:47;;;;;;;4.03;3.20;;;;;;;;;;4991584;28;20221;-78
2022/08/09 01:54:55;;;;;;;4.03;3.00;;;;;;;;;;4991609;28;20205;-78
2022/08/09 01:58:02;;;;;;;3.30;3.00;;;;;;;;;;4991703;28;20194;-77
2022/08/09 02:01:07;;;;;;;3.97;3.37;;;;;;;;;;5014632;28;20722;-77
2022/08/09 02:04:13;;;;;;;4.00;3.60;;;;;;;;;;5033528;28;20200;-78
2022/08/09 02:07:19;;;;;;;3.63;3.33;;;;;;;;;;5045065;28;20220;-78
2022/08/09 02:10:28;;;;;;;3.30;3.10;;;;;;;;;;5034309;28;20204;-77
2022/08/09 02:13:34;;;;;;;4.10;3.30;;;;;;;;;;5010963;28;20200;-78
2022/08/09 02:16:40;;;;;;;5.03;3.50;;;;;;;;;;5014592;28;20185;-78
2022/08/09 02:19:45;;;;;;;4.73;3.03;;;;;;;;;;5014145;28;20177;-77
2022/08/09 02:23:13;;;;;;;6.40;3.13;;;;;;;;;;5002880;28;20634;-77
2022/08/09 02:26:18;;;;;;;3.77;3.10;;;;;;;;;;5002388;28;20177;-78
2022/08/09 02:29:26;;;;;;;4.10;3.30;;;;;;;;;;5025030;28;20170;-78
2022/08/09 02:32:34;;;;;;;3.60;3.30;;;;;;;;;;5002986;28;20537;-77
2022/08/09 02:35:40;;;;;;;4.07;3.30;;;;;;;;;;5013544;28;20193;-77
2022/08/09 02:38:48;;;;;;;3.37;3.07;;;;;;;;;;5013620;28;20633;-78
2022/08/09 02:41:57;;;;;;;3.67;3.37;;;;;;;;;;5013834;28;20672;-78
2022/08/09 02:45:06;;;;;;;3.93;3.43;;;;;;;;;;5002002;28;20206;-78
2022/08/09 02:48:15;;;;;;;3.27;3.00;;;;;;;;;;5013655;28;20225;-78
2022/08/09 02:51:22;;;;;;;4.60;3.00;;;;;;;;;;5013311;28;20213;-78
2022/08/09 02:54:27;;;;;;;3.30;3.00;;;;;;;;;;5013207;28;20197;-78
2022/08/09 02:57:32;;;;;;;3.67;3.13;;;;;;;;;;5014630;28;20178;-78
2022/08/09 03:00:38;;;;;;;3.97;3.17;;;;;;;;;;5021377;28;20699;-78
2022/08/09 03:03:43;;;;;;;3.67;3.37;;;;;;;;;;5032822;28;20655;-78
2022/08/09 03:06:48;;;;;;;3.93;3.23;;;;;;;;;;5010788;28;20668;-78
2022/08/09 03:09:53;;;;;;;4.53;3.33;;;;;;;;;;5022402;28;20177;-77
2022/08/09 03:12:59;;;;;;;3.53;3.23;;;;;;;;;;5013914;28;20205;-78
2022/08/09 03:16:03;;;;;;;3.17;2.87;;;;;;;;;;5013508;28;20182;-77
2022/08/09 03:19:09;;;;;;;3.67;3.20;;;;;;;;;;5002323;28;20174;-77
2022/08/09 03:22:14;;;;;;;3.30;3.10;;;;;;;;;;5015094;28;20553;-78
2022/08/09 03:25:19;;;;;;;3.93;2.90;;;;;;;;;;5017404;28;20182;-78
2022/08/09 03:28:25;;;;;;;3.03;2.73;;;;;;;;;;5017492;28;20213;-78
2022/08/09 03:31:30;;;;;;;3.57;3.13;;;;;;;;;;5017860;28;20213;-78
2022/08/09 03:34:34;;;;;;;4.53;2.80;;;;;;;;;;5017894;28;20185;-78
2022/08/09 03:37:38;;;;;;;3.30;3.00;;;;;;;;;;5005163;28;20177;-78
2022/08/09 03:40:42;;;;;;;5.67;3.33;;;;;;;;;;5005387;28;20217;-78
2022/08/09 03:43:47;;;;;;;9.00;3.60;;;;;;;;;;5016575;28;20636;-78
2022/08/09 03:46:51;;;;;;;6.53;3.23;;;;;;;;;;5005170;28;20205;-77
2022/08/09 03:49:57;;;;;;;4.73;3.23;;;;;;;;;;4994112;28;20652;-78
2022/08/09 03:53:03;;;;;;;3.63;3.30;;;;;;;;;;5016362;28;20549;-78
2022/08/09 03:56:07;;;;;;;5.37;3.50;;;;;;;;;;5058525;23;20232;-77
2022/08/09 03:59:13;;;;;;;3.43;2.93;;;;;;;;;;5039898;28;20200;-77
2022/08/09 04:02:18;;;;;;;4.10;3.43;;;;;;;;;;5036415;28;20212;-77
2022/08/09 04:05:22;;;;;;;4.27;2.90;;;;;;;;;;5042370;28;20199;-77
2022/08/09 04:08:26;;;;;;;4.67;3.20;;;;;;;;;;5055577;28;20208;-77
2022/08/09 04:12:04;;;;;;;5.63;3.00;;;;;;;;;;5056000;28;20220;-77
2022/08/09 04:15:09;;;;;;;4.73;3.20;;;;;;;;;;5039587;28;20196;-77
2022/08/09 04:18:13;;;;;;;4.07;3.03;;;;;;;;;;5056642;28;20176;-77
2022/08/09 04:21:18;;;;;;;3.63;3.20;;;;;;;;;;5044355;28;20215;-77
2022/08/09 04:24:24;;;;;;;3.53;3.23;;;;;;;;;;5044345;28;20185;-77
2022/08/09 04:27:28;;;;;;;5.07;3.77;;;;;;;;;;5032462;28;20180;-77
2022/08/09 04:30:33;;;;;;;3.97;3.30;;;;;;;;;;5044025;28;20184;-77
2022/08/09 04:33:38;;;;;;;3.53;3.23;;;;;;;;;;5055673;28;20176;-77
2022/08/09 04:36:42;;;;;;;3.40;3.07;;;;;;;;;;5043604;28;20199;-77
2022/08/09 04:39:46;;;;;;;3.50;3.20;;;;;;;;;;5035206;28;20196;-77
2022/08/09 04:42:50;;;;;;;5.03;3.53;;;;;;;;;;5053605;28;20563;-79
2022/08/09 04:45:54;;;;;;;4.00;3.10;;;;;;;;;;5045042;28;20523;-79
2022/08/09 04:48:59;;;;;;;4.60;3.47;;;;;;;;;;5045269;28;20216;-79
2022/08/09 04:52:05;;;;;;;6.13;3.40;;;;;;;;;;5024687;28;20220;-79
2022/08/09 04:55:09;;;;;;;3.23;2.93;;;;;;;;;;5025183;28;20200;-79
2022/08/09 04:58:13;;;;;;;6.87;3.67;;;;;;;;;;5041365;28;20203;-79
2022/08/09 05:01:17;;;;;;;6.73;3.20;;;;;;;;;;5043111;28;20212;-79
2022/08/09 05:04:21;;;;;;;9.47;3.40;;;;;;;;;;5054835;28;20176;-79
2022/08/09 05:07:26;;;;;;;5.60;3.47;;;;;;;;;;5034166;28;20180;-81
2022/08/09 05:10:30;;;;;;;3.70;3.40;;;;;;;;;;5043328;28;20168;-80
2022/08/09 05:13:34;;;;;;;4.73;3.50;;;;;;;;;;5056979;28;20184;-79
2022/08/09 05:16:38;;;;;;;3.93;3.47;;;;;;;;;;5043922;28;20294;-80
2022/08/09 05:19:42;;;;;;;4.63;3.40;;;;;;;;;;5043789;28;20172;-80
2022/08/09 05:22:49;;;;;;;3.50;3.20;;;;;;;;;;5044090;28;20176;-80
2022/08/09 05:25:53;;;;;;;4.13;3.40;;;;;;;;;;5043745;28;20176;-80
2022/08/09 05:28:57;;;;;;;4.33;3.60;;;;;;;;;;5042629;28;20208;-79
2022/08/09 05:32:01;;;;;;;4.87;3.30;;;;;;;;;;5032197;28;20216;-80
2022/08/09 05:35:06;;;;;;;3.47;2.93;;;;;;;;;;5031598;28;20184;-80
2022/08/09 05:38:10;;;;;;;4.00;3.20;;;;;;;;;;5043179;28;20177;-79
2022/08/09 05:41:14;;;;;;;3.63;3.33;;;;;;;;;;5043155;28;20211;-79
2022/08/09 05:44:18;;;;;;;4.03;3.23;;;;;;;;;;5053960;28;20176;-78
2022/08/09 05:47:24;;;;;;;5.13;3.47;;;;;;;;;;5065942;28;20180;-79
2022/08/09 05:50:28;;;;;;;3.83;3.27;;;;;;;;;;5042773;28;20172;-79
2022/08/09 05:53:31;;;;;;;3.83;3.53;;;;;;;;;;5031589;28;20176;-79
2022/08/09 05:56:36;;;;;;;5.50;3.63;;;;;;;;;;5042324;28;20543;-79
2022/08/09 05:59:40;;;;;;;4.40;3.33;;;;;;;;;;5042718;28;20513;-79
2022/08/09 06:02:44;;;;;;;10.03;3.60;;;;;;;;;;5042855;28;20172;-79
2022/08/09 06:05:48;;;;;;;27.70;5.20;;;;;;;;;;5042463;28;20650;-79
2022/08/09 06:08:52;;;;;;;7.73;3.70;;;;;;;;;;5031376;28;20681;-78
2022/08/09 06:11:56;;;;;;;5.83;3.40;;;;;;;;;;5042327;28;20219;-79
2022/08/09 06:15:00;;;;;;;14.40;3.90;;;;;;;;;;5054715;28;20180;-79
2022/08/09 06:18:05;;;;;;;13.07;4.47;;;;;;;;;;5054101;28;20176;-79
2022/08/09 06:21:09;;;;;;;9.37;3.80;;;;;;;;;;5055075;28;20220;-79
2022/08/09 06:24:13;;;;;;;10.13;3.60;;;;;;;;;;5043706;28;20180;-79
2022/08/09 06:27:18;;;;;;;7.20;3.87;;;;;;;;;;5042663;28;20634;-78
2022/08/09 06:30:22;;;;;;;11.90;3.57;;;;;;;;;;5054659;28;20207;-78
2022/08/09 06:33:26;;;;;;;7.27;3.73;;;;;;;;;;5054299;28;20180;-79
2022/08/09 06:36:30;;;;;;;8.70;3.03;;;;;;;;;;5031944;28;20188;-79
2022/08/09 06:39:35;;;;;;;6.27;3.33;;;;;;;;;;5031250;28;20176;-78
2022/08/09 06:42:39;;;;;;;59.37;5.63;;;;;;;;;;5043652;28;20219;-79
2022/08/09 06:45:44;;;;;;;14.17;2.50;;;;;;;;;;5033523;28;20536;-80
2022/08/09 06:48:48;;;;;;;5.03;2.57;;;;;;;;;;5045017;28;20567;-79
2022/08/09 06:51:52;;;;;;;12.43;4.60;;;;;;;;;;5045491;28;20216;-79
2022/08/09 06:54:56;;;;;;;4.27;2.70;;;;;;;;;;5032091;28;20199;-79
2022/08/09 06:58:00;;;;;;;5.33;2.07;;;;;;;;;;5058477;28;20175;-77
2022/08/09 07:01:05;;;;;;;31.90;3.63;;;;;;;;;;5059124;28;20211;-78
2022/08/09 07:04:09;;;;;;;14.90;2.53;;;;;;;;;;5046201;28;20266;-78
2022/08/09 07:07:14;;;;;;;16.77;2.33;;;;;;;;;;5047021;28;20172;-78
2022/08/09 07:10:18;;;;;;;3.90;2.40;;;;;;;;;;5047051;28;20560;-77
2022/08/09 07:13:23;;;;;;;5.40;2.30;;;;;;;;;;5047456;28;20196;-78
2022/08/09 07:16:27;;;;;;;7.80;1.80;;;;;;;;;;5059586;28;20180;-77
2022/08/09 07:19:31;;;;;;;6.37;1.40;;;;;;;;;;5058493;28;20173;-78
2022/08/09 07:22:35;;;;;;;4.57;1.80;;;;;;;;;;5059770;28;20211;-77
2022/08/09 07:25:39;;;;;;;20.90;2.50;;;;;;;;;;5058480;28;20196;-78
2022/08/09 07:28:44;;;;;;;6.87;1.70;;;;;;;;;;5059299;28;20219;-77
2022/08/09 07:31:48;;;;;;;23.43;3.17;;;;;;;;;;5038044;28;20212;-78
2022/08/09 07:34:53;;;;;;;11.37;2.20;;;;;;;;;;5061325;28;20180;-78
2022/08/09 07:37:56;;;;;;;5.10;1.70;;;;;;;;;;5059908;28;20184;-78
2022/08/09 07:41:00;;;;;;;7.47;2.60;;;;;;;;;;5059416;28;20216;-79
2022/08/09 07:44:05;;;;;;;2.00;1.60;;;;;;;;;;5047829;28;20180;-79
2022/08/09 07:47:09;;;;;;;7.40;2.30;;;;;;;;;;5059222;28;20631;-78
2022/08/09 07:50:13;;;;;;;2.37;1.20;;;;;;;;;;5059506;28;20204;-78
2022/08/09 07:53:17;;;;;;;2.20;1.43;;;;;;;;;;5048210;28;20179;-78
2022/08/09 07:56:22;;;;;;;14.60;1.60;;;;;;;;;;5059261;28;20200;-79
2022/08/09 07:59:26;;;;;;;9.93;1.83;;;;;;;;;;5036303;28;20176;-78
2022/08/09 08:02:30;;;;;;;2.20;1.47;;;;;;;;;;5047031;28;20220;-78
2022/08/09 08:05:35;;;;;;;4.03;1.40;;;;;;;;;;5058855;28;20173;-79
2022/08/09 08:08:39;;;;;;;6.73;1.80;;;;;;;;;;5058730;28;20178;-78
2022/08/09 08:11:43;;;;;;;5.87;1.80;;;;;;;;;;5046868;28;20218;-78
2022/08/09 08:14:47;;;;;;;5.57;1.40;;;;;;;;;;5046625;28;20184;-79
2022/08/09 08:17:52;;;;;;;6.50;1.70;;;;;;;;;;5046492;28;20184;-79
2022/08/09 08:20:56;;;;;;;1.57;1.20;;;;;;;;;;5058571;28;20690;-79
2022/08/09 08:24:00;;;;;;;28.33;3.90;;;;;;;;;;5047636;28;20204;-79
2022/08/09 08:27:05;;;;;;;8.70;1.83;;;;;;;;;;5036133;28;20200;-79
2022/08/09 08:30:12;;;;;;;4.05;1.50;;;;;;;;;;5047352;28;20207;-79
2022/08/09 08:33:16;;;;;;;2.33;0.98;;;;;;;;;;5047992;28;20180;-78
2022/08/09 08:36:20;;;;;;;5.40;1.25;;;;;;;;;;5058890;28;20531;-79
2022/08/09 08:39:24;;;;;;;3.22;2.15;;;;;;;;;;5058955;28;20515;-79
2022/08/09 08:42:30;;;;;;;4.90;1.20;;;;;;;;;;5059832;28;20217;-79
2022/08/09 08:45:41;;;;;;;7.68;1.30;;;;;;;;;;5058471;28;20634;-78
2022/08/09 08:48:46;;;;;;;8.82;1.48;;;;;;;;;;5058390;28;20190;-79
2022/08/09 08:51:51;;;;;;;6.32;1.42;;;;;;;;;;5046980;28;20256;-79
2022/08/09 08:54:57;;;;;;;3.70;1.30;;;;;;;;;;5059219;28;20669;-79
2022/08/09 08:58:01;;;;;;;4.55;1.27;;;;;;;;;;5047213;28;20182;-79
2022/08/09 09:01:06;;;;;;;3.38;1.40;;;;;;;;;;5059163;28;20206;-79
2022/08/09 09:04:11;;;;;;;5.20;1.10;;;;;;;;;;5058967;28;20191;-79
2022/08/09 09:07:16;;;;;;;2.20;1.20;;;;;;;;;;5046476;28;20179;-79
2022/08/09 09:10:22;;;;;;;6.07;1.17;;;;;;;;;;5057652;28;20231;-79
2022/08/09 09:13:27;;;;;;;9.55;1.55;;;;;;;;;;5058049;28;20198;-79
2022/08/09 09:16:32;;;;;;;7.38;1.45;;;;;;;;;;5035640;28;20643;-79
2022/08/09 09:19:36;;;;;;;14.38;2.85;;;;;;;;;;5045672;28;20184;-79
2022/08/09 09:22:57;;;;;;;4.80;1.02;;;;;;;;;;5058141;28;20226;-79
2022/08/09 09:26:02;;;;;;;2.22;1.08;;;;;;;;;;5058674;28;20176;-80
2022/08/09 09:29:06;;;;;;;2.80;1.30;;;;;;;;;;5046513;28;20182;-80
2022/08/09 09:32:10;;;;;;;1.63;1.10;;;;;;;;;;5046733;28;20218;-80
2022/08/09 09:35:14;;;;;;;4.22;1.30;;;;;;;;;;5034763;28;20200;-79
2022/08/09 09:38:21;;;;;;;7.78;1.38;;;;;;;;;;5056899;28;20202;-79
2022/08/09 09:41:28;;;;;;;6.28;1.30;;;;;;;;;;5058695;28;20214;-79
2022/08/09 09:44:33;;;;;;;4.10;1.20;;;;;;;;;;5046792;28;20180;-79
2022/08/09 09:47:45;;;;;;;1.98;0.95;;;;;;;;;;5057645;28;20203;-80
2022/08/09 09:50:50;;;;;;;4.18;1.20;;;;;;;;;;5056960;28;20575;-79
2022/08/09 09:54:14;;;;;;;2.63;1.15;;;;;;;;;;5045821;28;20196;-80
2022/08/09 09:57:22;;;;;;;2.58;0.98;;;;;;;;;;5068479;22;20232;-76
2022/08/09 10:00:26;;;;;;;5.85;1.52;;;;;;;;;;5054760;28;20512;-77
2022/08/09 10:03:38;;;;;;;1.42;0.80;;;;;;;;;;5054169;28;20172;-77
2022/08/09 10:06:44;;;;;;;2.95;1.10;;;;;;;;;;5053791;28;20177;-77
2022/08/09 10:09:52;;;;;;;1.58;0.93;;;;;;;;;;5053125;28;20204;-77
2022/08/09 10:12:56;;;;;;;2.20;1.08;;;;;;;;;;5053213;28;20184;-76
2022/08/09 10:16:00;;;;;;;2.58;0.90;;;;;;;;;;5052665;28;20181;-77
2022/08/09 10:19:08;;;;;;;3.58;1.20;;;;;;;;;;5053731;28;20176;-76
2022/08/09 10:22:12;;;;;;;3.42;1.10;;;;;;;;;;5052667;28;20556;-77
2022/08/09 10:25:16;;;;;;;3.42;1.08;;;;;;;;;;5052926;28;20188;-77
2022/08/09 10:28:20;;;;;;;34.60;3.05;;;;;;;;;;5041301;28;20172;-76
2022/08/09 10:31:24;;;;;;;1.73;1.00;;;;;;;;;;5055340;28;20223;-77
2022/08/09 10:34:29;;;;;;;47.22;3.15;;;;;;;;;;5056529;28;20180;-76
2022/08/09 10:37:33;;;;;;;2.90;1.20;;;;;;;;;;5056573;28;20533;-77
2022/08/09 10:40:37;;;;;;;5.63;1.20;;;;;;;;;;5057348;28;20208;-77
2022/08/09 10:43:45;;;;;;;5.50;1.33;;;;;;;;;;5056494;28;20515;-77
2022/08/09 10:47:02;;;;;;;3.63;0.90;;;;;;;;;;5057042;28;20192;-76
2022/08/09 10:51:05;;;;;;;1.73;0.90;;;;;;;;;;5057121;28;20212;-77
2022/08/09 10:53:59;;;;;;;4.90;1.05;;;;;;;;;;5057179;28;20181;-77
2022/08/09 10:57:14;;;;;;;1.85;0.80;;;;;;;;;;5057022;28;20204;-77
2022/08/09 11:00:42;;;;;;;2.00;1.05;;;;;;;;;;5056661;28;20177;-77
2022/08/09 11:04:09;;;;;;;3.65;1.30;;;;;;;;;;5056187;28;20184;-77
2022/08/09 11:07:13;;;;;;;1.70;1.10;;;;;;;;;;5055932;28;20181;-77
2022/08/09 11:10:42;;;;;;;1.23;1.00;;;;;;;;;;5055861;28;20216;-77
2022/08/09 11:14:26;;;;;;;49.00;3.15;;;;;;;;;;5056868;28;20184;-76
2022/08/09 11:17:31;;;;;;;3.22;1.25;;;;;;;;;;5056655;28;20545;-76
2022/08/09 11:20:41;;;;;;;3.75;1.45;;;;;;;;;;5055640;28;20173;-77
2022/08/09 11:23:57;;;;;;;41.67;3.58;;;;;;;;;;5056579;28;20176;-77
2022/08/09 11:27:31;;;;;;;1.95;1.02;;;;;;;;;;5056105;28;20184;-77
2022/08/09 11:30:36;;;;;;;4.25;1.30;;;;;;;;;;5032868;28;20581;-77
2022/08/09 11:33:47;;;;;;;1.25;1.10;;;;;;;;;;5044383;28;20180;-77
2022/08/09 11:36:53;;;;;;;3.72;1.08;;;;;;;;;;5055893;28;20533;-77
2022/08/09 11:40:04;;;;;;;1.77;1.10;;;;;;;;;;5055735;28;20176;-76
2022/08/09 11:43:08;;;;;;;4.30;1.20;;;;;;;;;;5054688;28;20181;-76
2022/08/09 11:46:13;;;;;;;2.58;1.05;;;;;;;;;;5055307;28;20176;-77
2022/08/09 11:49:17;;;;;;;1.75;1.20;;;;;;;;;;5043633;28;20172;-76
2022/08/09 11:52:24;;;;;;;4.32;1.38;;;;;;;;;;5054799;28;20208;-76
2022/08/09 11:55:39;;;;;;;5.53;1.00;;;;;;;;;;5055269;28;20180;-77
2022/08/09 11:58:45;;;;;;;1.52;1.00;;;;;;;;;;5056005;28;20176;-77
2022/08/09 12:01:50;;;;;;;1.80;1.15;;;;;;;;;;5066193;28;20690;-78
2022/08/09 12:04:54;;;;;;;3.80;1.45;;;;;;;;;;5055422;28;20189;-76
2022/08/09 12:07:59;;;;;;;2.08;1.15;;;;;;;;;;5055740;28;20176;-76
2022/08/09 12:11:03;;;;;;;2.78;0.98;;;;;;;;;;5054483;28;20220;-76
2022/08/09 12:14:10;;;;;;;7.00;1.58;;;;;;;;;;5055717;28;20512;-77
2022/08/09 12:17:14;;;;;;;4.95;1.27;;;;;;;;;;5066371;28;20177;-76
2022/08/09 12:20:24;;;;;;;3.88;1.23;;;;;;;;;;5055410;28;20172;-77
2022/08/09 12:23:31;;;;;;;2.92;1.30;;;;;;;;;;5055573;28;20518;-77
2022/08/09 12:26:49;;;;;;;1.95;1.10;;;;;;;;;;5055426;28;20177;-76
2022/08/09 12:29:55;;;;;;;3.92;1.02;;;;;;;;;;5055021;28;20181;-77
2022/08/09 12:33:03;;;;;;;3.33;1.30;;;;;;;;;;5055368;28;20538;-77
2022/08/09 12:36:07;;;;;;;1.95;1.30;;;;;;;;;;5055099;28;20181;-77
2022/08/09 12:39:13;;;;;;;41.42;3.92;;;;;;;;;;5054382;28;20176;-77
2022/08/09 12:42:17;;;;;;;5.03;1.20;;;;;;;;;;5042567;28;20212;-77
2022/08/09 12:45:22;;;;;;;3.33;1.10;;;;;;;;;;5055155;28;20185;-77
2022/08/09 12:48:27;;;;;;;3.72;1.20;;;;;;;;;;5042984;28;20173;-76
2022/08/09 12:51:32;;;;;;;1.45;1.00;;;;;;;;;;5054736;28;20220;-76
2022/08/09 12:54:53;;;;;;;3.55;1.02;;;;;;;;;;5052950;28;20176;-76
2022/08/09 12:57:58;;;;;;;3.00;1.10;;;;;;;;;;5053862;28;20193;-77
2022/08/09 13:01:04;;;;;;;1.65;1.00;;;;;;;;;;5054608;28;20230;-77
2022/08/09 13:04:11;;;;;;;3.97;1.10;;;;;;;;;;5054655;28;20189;-77
2022/08/09 13:07:16;;;;;;;1.73;0.90;;;;;;;;;;5042081;28;20177;-77
2022/08/09 13:10:20;;;;;;;10.32;1.50;;;;;;;;;;5054174;28;20176;-77
2022/08/09 13:13:33;;;;;;;7.35;1.33;;;;;;;;;;5054415;28;20173;-76
2022/08/09 13:16:45;;;;;;;5.57;1.33;;;;;;;;;;5054214;28;20181;-77
2022/08/09 13:19:56;;;;;;;1.90;0.90;;;;;;;;;;5053574;28;20206;-76
2022/08/09 13:23:00;;;;;;;8.02;1.27;;;;;;;;;;5053241;28;20181;-77
2022/08/09 13:26:04;;;;;;;3.65;1.08;;;;;;;;;;5054507;28;20181;-77
2022/08/09 13:29:14;;;;;;;2.65;1.20;;;;;;;;;;5053388;28;20181;-77
2022/08/09 13:32:18;;;;;;;9.82;1.50;;;;;;;;;;5053740;28;20232;-77
2022/08/09 13:35:25;;;;;;;1.98;1.10;;;;;;;;;;5053949;28;20525;-77
2022/08/09 13:38:29;;;;;;;8.30;1.63;;;;;;;;;;5053360;28;20188;-77
2022/08/09 13:41:34;;;;;;;5.15;1.95;;;;;;;;;;5053428;28;20212;-77
2022/08/09 13:44:40;;;;;;;4.72;1.30;;;;;;;;;;5052606;28;20200;-77
2022/08/09 13:47:44;;;;;;;3.88;1.02;;;;;;;;;;5053769;28;20650;-77
2022/08/09 13:50:48;;;;;;;1.23;0.88;;;;;;;;;;5048674;28;20220;-77
2022/08/09 13:53:52;;;;;;;3.35;1.17;;;;;;;;;;5053190;28;20643;-77
2022/08/09 13:56:57;;;;;;;3.80;1.10;;;;;;;;;;5053346;28;20212;-76
2022/08/09 14:00:05;;;;;;;4.18;1.30;;;;;;;;;;5063889;28;20200;-77
2022/08/09 14:03:15;;;;;;;2.22;1.30;;;;;;;;;;5052573;28;20173;-77
2022/08/09 14:06:19;;;;;;;2.03;1.05;;;;;;;;;;5052926;28;20180;-77
2022/08/09 14:09:24;;;;;;;20.70;2.17;;;;;;;;;;5053032;28;20184;-76
2022/08/09 14:12:28;;;;;;;1.92;1.20;;;;;;;;;;5052288;28;20220;-76
2022/08/09 14:15:32;;;;;;;2.35;1.10;;;;;;;;;;5053050;28;20176;-76
2022/08/09 14:18:40;;;;;;;1.40;1.20;;;;;;;;;;5053254;28;20216;-76
2022/08/09 14:21:44;;;;;;;121.47;6.72;;;;;;;;;;5053202;28;20557;-76
2022/08/09 14:24:48;;;;;;;8.55;1.63;;;;;;;;;;5053129;28;20180;-77
2022/08/09 14:27:52;;;;;;;2.88;1.05;;;;;;;;;;5052082;28;20635;-76
2022/08/09 14:30:56;;;;;;;5.53;1.45;;;;;;;;;;5052975;28;20678;-77
2022/08/09 14:34:01;;;;;;;3.05;1.00;;;;;;;;;;5052323;28;20177;-76
2022/08/09 14:37:05;;;;;;;8.80;1.63;;;;;;;;;;5052131;28;20180;-76
2022/08/09 14:40:10;;;;;;;5.47;1.20;;;;;;;;;;5052746;28;20180;-77
2022/08/09 14:43:14;;;;;;;25.75;2.75;;;;;;;;;;5053012;28;20180;-77
2022/08/09 14:46:18;;;;;;;4.40;1.13;;;;;;;;;;5052721;28;20539;-77
2022/08/09 14:49:24;;;;;;;2.15;1.10;;;;;;;;;;5052692;28;20651;-76
2022/08/09 14:52:28;;;;;;;28.48;2.97;;;;;;;;;;5040423;28;20232;-76
2022/08/09 14:55:32;;;;;;;5.53;1.05;;;;;;;;;;5051680;28;20177;-77
2022/08/09 14:58:36;;;;;;;49.38;3.78;;;;;;;;;;5040486;28;20522;-77
2022/08/09 15:01:40;;;;;;;6.65;1.30;;;;;;;;;;5051771;28;20212;-76
2022/08/09 15:04:45;;;;;;;9.63;1.30;;;;;;;;;;5052747;28;20180;-76
2022/08/09 15:07:49;;;;;;;7.93;1.60;;;;;;;;;;5051659;28;20208;-77
2022/08/09 15:10:53;;;;;;;5.35;1.38;;;;;;;;;;5052246;28;20220;-77
2022/08/09 15:13:57;;;;;;;7.43;1.63;;;;;;;;;;5052650;28;20172;-77
2022/08/09 15:17:01;;;;;;;2.05;1.10;;;;;;;;;;5052681;28;20184;-76
2022/08/09 15:20:06;;;;;;;22.83;1.67;;;;;;;;;;5056476;28;20595;-76
2022/08/09 15:23:10;;;;;;;1.95;1.10;;;;;;;;;;5055342;28;20530;-77
2022/08/09 15:26:14;;;;;;;3.00;1.08;;;;;;;;;;5055561;28;20627;-76
2022/08/09 15:29:18;;;;;;;1.10;1.00;;;;;;;;;;5056359;28;20188;-76
2022/08/09 15:32:24;;;;;;;4.03;1.23;;;;;;;;;;5056281;28;20220;-76
2022/08/09 15:35:28;;;;;;;2.75;1.15;;;;;;;;;;5057377;28;20172;-76
2022/08/09 15:38:34;;;;;;;34.47;3.22;;;;;;;;;;5057272;28;20173;-76
2022/08/09 15:41:39;;;;;;;44.30;3.53;;;;;;;;;;5055641;28;20215;-76
2022/08/09 15:44:43;;;;;;;3.25;1.33;;;;;;;;;;5057585;28;20188;-76
2022/08/09 15:47:47;;;;;;;2.80;1.35;;;;;;;;;;5058034;28;20184;-76
2022/08/09 15:50:52;;;;;;;5.97;1.30;;;;;;;;;;5058240;28;20211;-75
2022/08/09 15:53:56;;;;;;;5.82;1.30;;;;;;;;;;5058910;28;20188;-76
2022/08/09 15:57:01;;;;;;;5.90;1.52;;;;;;;;;;5059607;28;20689;-76
2022/08/09 16:00:08;;;;;;;4.82;1.30;;;;;;;;;;5060115;28;20181;-76
2022/08/09 16:03:13;;;;;;;2.80;1.10;;;;;;;;;;5060104;28;20180;-76
2022/08/09 16:06:17;;;;;;;13.88;1.75;;;;;;;;;;5059564;28;20184;-76
2022/08/09 16:09:22;;;;;;;21.85;2.13;;;;;;;;;;5059327;28;20186;-76
2022/08/09 16:12:26;;;;;;;4.40;1.20;;;;;;;;;;5058022;28;20223;-76
2022/08/09 16:15:30;;;;;;;2.17;1.05;;;;;;;;;;5057188;28;20192;-76
2022/08/09 16:18:34;;;;;;;4.32;1.10;;;;;;;;;;5057727;28;20198;-76
2022/08/09 16:21:40;;;;;;;1.80;1.30;;;;;;;;;;5057115;28;20550;-76
2022/08/09 16:24:44;;;;;;;20.88;2.42;;;;;;;;;;5057246;28;20173;-75
2022/08/09 16:27:49;;;;;;;3.08;1.20;;;;;;;;;;5056559;28;20524;-76
2022/08/09 16:30:53;;;;;;;2.47;1.20;;;;;;;;;;5032376;28;20705;-76
2022/08/09 16:33:57;;;;;;;2.60;1.05;;;;;;;;;;5055541;28;20521;-76
2022/08/09 16:37:01;;;;;;;67.18;4.65;;;;;;;;;;5054790;28;20545;-76
2022/08/09 16:40:07;;;;;;;5.65;1.10;;;;;;;;;;5065918;28;20205;-77
2022/08/09 16:43:10;;;;;;;2.40;1.10;;;;;;;;;;5055391;28;20619;-76
2022/08/09 16:46:18;;;;;;;5.45;1.25;;;;;;;;;;5046508;28;20207;-76
2022/08/09 16:49:22;;;;;;;8.70;2.83;;;;;;;;;;5055484;28;20210;-76
2022/08/09 16:52:26;;;;;;;5.43;1.30;;;;;;;;;;5045563;28;20228;-76
2022/08/09 16:55:30;;;;;;;1.67;1.17;;;;;;;;;;5035481;28;20181;-76
2022/08/09 16:58:35;;;;;;;3.13;1.10;;;;;;;;;;5038346;28;20195;-76
2022/08/09 17:01:39;;;;;;;3.42;1.40;;;;;;;;;;5053384;28;20232;-76
2022/08/09 17:04:44;;;;;;;3.75;1.30;;;;;;;;;;5054908;28;20180;-76
2022/08/09 17:07:48;;;;;;;10.93;1.70;;;;;;;;;;5054836;28;20513;-75
2022/08/09 17:10:53;;;;;;;1.63;1.15;;;;;;;;;;5053644;28;20226;-76
2022/08/09 17:13:56;;;;;;;2.95;1.20;;;;;;;;;;5034511;28;20197;-76
2022/08/09 17:17:02;;;;;;;3.45;1.25;;;;;;;;;;5036253;28;20181;-76
2022/08/09 17:20:08;;;;;;;1.83;1.02;;;;;;;;;;5054214;28;20214;-74
2022/08/09 17:23:13;;;;;;;2.17;1.10;;;;;;;;;;5054789;28;20175;-75
2022/08/09 17:26:17;;;;;;;22.97;2.00;;;;;;;;;;5065005;28;20182;-75
2022/08/09 17:29:21;;;;;;;1.80;1.23;;;;;;;;;;5054314;28;20181;-75
2022/08/09 17:32:25;;;;;;;3.77;1.30;;;;;;;;;;5064931;28;20234;-75
2022/08/09 17:35:31;;;;;;;3.03;1.10;;;;;;;;;;5053511;28;20211;-75
2022/08/09 17:38:35;;;;;;;2.70;1.10;;;;;;;;;;5021785;28;20181;-75
2022/08/09 17:41:41;;;;;;;7.93;1.67;;;;;;;;;;5041386;28;20227;-75
2022/08/09 17:44:45;;;;;;;3.13;1.40;;;;;;;;;;5053256;28;20177;-75
2022/08/09 17:47:49;;;;;;;2.50;1.10;;;;;;;;;;5053598;28;20496;-75
2022/08/09 17:50:53;;;;;;;2.17;1.10;;;;;;;;;;5052900;28;20564;-75
2022/08/09 17:54:00;;;;;;;2.83;1.27;;;;;;;;;;5032722;28;20188;-75
2022/08/09 17:57:04;;;;;;;28.20;3.10;;;;;;;;;;5033492;28;20199;-75
2022/08/09 18:00:09;;;;;;;9.47;1.77;;;;;;;;;;5033704;28;20566;-75
2022/08/09 18:03:17;;;;;;;390.53;23.60;;;;;;;;;;5032843;28;20176;-75
2022/08/09 18:06:23;;;;;;;38.03;3.40;;;;;;;;;;5036446;28;20199;-75
2022/08/09 18:09:27;;;;;;;5.63;1.50;;;;;;;;;;5053633;28;20540;-75
2022/08/09 18:12:31;;;;;;;5.87;1.73;;;;;;;;;;5053088;28;20223;-76
2022/08/09 18:15:35;;;;;;;3.20;2.00;;;;;;;;;;5053162;28;20180;-76
2022/08/09 18:18:40;;;;;;;5.17;3.63;;;;;;;;;;5052661;28;20190;-76
2022/08/09 18:21:44;;;;;;;6.23;3.90;;;;;;;;;;5053306;28;20217;-76
2022/08/09 18:24:48;;;;;;;9.13;5.73;;;;;;;;;;5052319;28;20635;-76
2022/08/09 18:27:55;;;;;;;12.93;7.30;;;;;;;;;;5053553;28;20181;-76
2022/08/09 18:30:59;;;;;;;12.00;6.67;;;;;;;;;;5032600;28;20221;-76
2022/08/09 18:34:04;;;;;;;8.13;6.03;;;;;;;;;;5033322;28;20213;-76